sensor_id;sensor_type;location;lat;lon;timestamp;pressure;altitude;pressure_sealevel;temperature
40968;BMP280;57377;45.130;6.038;2023-01-06T00:02:13;93378.56;;;7.06
40968;BMP280;57377;45.130;6.038;2023-01-06T00:04:41;93365.75;;;6.95
40968;BMP280;57377;45.130;6.038;2023-01-06T00:07:07;93366.84;;;6.99
40968;BMP280;57377;45.130;6.038;2023-01-06T00:09:32;93367.66;;;7.31
40968;BMP280;57377;45.130;6.038;2023-01-06T00:11:59;93367.28;;;7.48
40968;BMP280;57377;45.130;6.038;2023-01-06T00:14:24;93363.06;;;7.37
40968;BMP280;57377;45.130;6.038;2023-01-06T00:16:49;93375.22;;;6.85
40968;BMP280;57377;45.130;6.038;2023-01-06T00:19:15;93355.56;;;7.10
40968;BMP280;57377;45.130;6.038;2023-01-06T00:21:40;93374.78;;;6.93
40968;BMP280;57377;45.130;6.038;2023-01-06T00:24:09;93365.41;;;6.61
40968;BMP280;57377;45.130;6.038;2023-01-06T00:26:39;93366.16;;;5.98
40968;BMP280;57377;45.130;6.038;2023-01-06T00:29:12;93360.88;;;6.09
40968;BMP280;57377;45.130;6.038;2023-01-06T00:31:40;93371.06;;;6.15
40968;BMP280;57377;45.130;6.038;2023-01-06T00:34:06;93355.16;;;6.71
40968;BMP280;57377;45.130;6.038;2023-01-06T00:36:31;93357.22;;;6.69
40968;BMP280;57377;45.130;6.038;2023-01-06T00:38:57;93355.72;;;6.72
40968;BMP280;57377;45.130;6.038;2023-01-06T00:41:22;93362.00;;;6.81
40968;BMP280;57377;45.130;6.038;2023-01-06T00:44:07;93360.03;;;6.93
40968;BMP280;57377;45.130;6.038;2023-01-06T00:46:33;93358.41;;;6.82
40968;BMP280;57377;45.130;6.038;2023-01-06T00:49:00;93355.44;;;6.74
40968;BMP280;57377;45.130;6.038;2023-01-06T00:51:26;93351.19;;;6.84
40968;BMP280;57377;45.130;6.038;2023-01-06T00:53:52;93355.25;;;6.54
40968;BMP280;57377;45.130;6.038;2023-01-06T00:56:17;93346.63;;;6.70
40968;BMP280;57377;45.130;6.038;2023-01-06T00:58:43;93339.66;;;6.71
40968;BMP280;57377;45.130;6.038;2023-01-06T01:01:09;93342.34;;;6.80
40968;BMP280;57377;45.130;6.038;2023-01-06T01:03:36;93344.63;;;6.77
40968;BMP280;57377;45.130;6.038;2023-01-06T01:06:09;93339.44;;;6.51
40968;BMP280;57377;45.130;6.038;2023-01-06T01:08:37;93344.03;;;6.44
40968;BMP280;57377;45.130;6.038;2023-01-06T01:11:11;93339.25;;;6.83
40968;BMP280;57377;45.130;6.038;2023-01-06T01:13:56;93336.13;;;6.81
40968;BMP280;57377;45.130;6.038;2023-01-06T01:16:22;93335.44;;;6.91
40968;BMP280;57377;45.130;6.038;2023-01-06T01:18:47;93333.31;;;7.09
40968;BMP280;57377;45.130;6.038;2023-01-06T01:21:13;93333.88;;;7.16
40968;BMP280;57377;45.130;6.038;2023-01-06T01:23:38;93328.59;;;7.01
40968;BMP280;57377;45.130;6.038;2023-01-06T01:26:04;93334.47;;;6.71
40968;BMP280;57377;45.130;6.038;2023-01-06T01:28:29;93331.00;;;6.86
40968;BMP280;57377;45.130;6.038;2023-01-06T01:31:01;93322.50;;;7.17
40968;BMP280;57377;45.130;6.038;2023-01-06T01:33:31;93324.19;;;7.33
40968;BMP280;57377;45.130;6.038;2023-01-06T01:39:34;93324.09;;;6.66
40968;BMP280;57377;45.130;6.038;2023-01-06T01:41:59;93324.94;;;6.50
40968;BMP280;57377;45.130;6.038;2023-01-06T01:47:16;93327.91;;;6.37
40968;BMP280;57377;45.130;6.038;2023-01-06T01:49:43;93322.13;;;6.30
40968;BMP280;57377;45.130;6.038;2023-01-06T01:52:10;93330.31;;;6.01
40968;BMP280;57377;45.130;6.038;2023-01-06T01:54:36;93330.16;;;6.07
40968;BMP280;57377;45.130;6.038;2023-01-06T01:57:11;93320.88;;;6.33
40968;BMP280;57377;45.130;6.038;2023-01-06T01:59:41;93322.34;;;6.03
40968;BMP280;57377;45.130;6.038;2023-01-06T02:02:07;93323.41;;;6.28
40968;BMP280;57377;45.130;6.038;2023-01-06T02:04:36;93322.78;;;6.42
40968;BMP280;57377;45.130;6.038;2023-01-06T02:07:05;93317.50;;;6.53
40968;BMP280;57377;45.130;6.038;2023-01-06T02:09:36;93327.41;;;6.40
40968;BMP280;57377;45.130;6.038;2023-01-06T02:12:14;93320.81;;;6.49
40968;BMP280;57377;45.130;6.038;2023-01-06T02:14:40;93320.09;;;6.53
40968;BMP280;57377;45.130;6.038;2023-01-06T02:33:48;93309.00;;;6.58
40968;BMP280;57377;45.130;6.038;2023-01-06T02:41:32;93298.72;;;6.63
40968;BMP280;57377;45.130;6.038;2023-01-06T02:50:41;93292.22;;;6.34
40968;BMP280;57377;45.130;6.038;2023-01-06T02:53:19;93281.16;;;6.65
40968;BMP280;57377;45.130;6.038;2023-01-06T02:55:52;93290.75;;;6.43
40968;BMP280;57377;45.130;6.038;2023-01-06T03:01:23;93290.84;;;6.53
40968;BMP280;57377;45.130;6.038;2023-01-06T03:03:51;93291.34;;;6.50
40968;BMP280;57377;45.130;6.038;2023-01-06T03:06:18;93277.47;;;6.56
40968;BMP280;57377;45.130;6.038;2023-01-06T03:08:46;93283.25;;;6.41
40968;BMP280;57377;45.130;6.038;2023-01-06T03:11:13;93284.41;;;6.29
40968;BMP280;57377;45.130;6.038;2023-01-06T03:13:47;93278.75;;;6.32
40968;BMP280;57377;45.130;6.038;2023-01-06T03:16:14;93278.09;;;6.20
40968;BMP280;57377;45.130;6.038;2023-01-06T03:18:41;93276.47;;;6.14
40968;BMP280;57377;45.130;6.038;2023-01-06T03:21:13;93277.13;;;6.26
40968;BMP280;57377;45.130;6.038;2023-01-06T03:23:40;93273.94;;;6.19
40968;BMP280;57377;45.130;6.038;2023-01-06T03:26:16;93271.84;;;6.16
40968;BMP280;57377;45.130;6.038;2023-01-06T03:28:49;93273.25;;;6.50
40968;BMP280;57377;45.130;6.038;2023-01-06T03:44:09;93266.03;;;6.05
40968;BMP280;57377;45.130;6.038;2023-01-06T03:46:41;93260.47;;;5.91
40968;BMP280;57377;45.130;6.038;2023-01-06T03:49:20;93260.13;;;6.30
40968;BMP280;57377;45.130;6.038;2023-01-06T03:52:25;93270.41;;;6.25
40968;BMP280;57377;45.130;6.038;2023-01-06T03:55:01;93272.72;;;6.22
40968;BMP280;57377;45.130;6.038;2023-01-06T03:57:55;93274.53;;;6.26
40968;BMP280;57377;45.130;6.038;2023-01-06T04:00:27;93272.91;;;6.41
40968;BMP280;57377;45.130;6.038;2023-01-06T04:02:54;93268.38;;;6.27
40968;BMP280;57377;45.130;6.038;2023-01-06T04:05:21;93268.44;;;6.32
40968;BMP280;57377;45.130;6.038;2023-01-06T04:07:51;93270.03;;;6.38
40968;BMP280;57377;45.130;6.038;2023-01-06T04:10:18;93267.63;;;6.58
40968;BMP280;57377;45.130;6.038;2023-01-06T04:12:44;93268.97;;;6.34
40968;BMP280;57377;45.130;6.038;2023-01-06T04:15:12;93263.69;;;6.24
40968;BMP280;57377;45.130;6.038;2023-01-06T04:17:39;93267.78;;;6.20
40968;BMP280;57377;45.130;6.038;2023-01-06T04:20:06;93258.97;;;6.42
40968;BMP280;57377;45.130;6.038;2023-01-06T04:22:32;93257.19;;;6.48
40968;BMP280;57377;45.130;6.038;2023-01-06T04:24:57;93255.00;;;6.35
40968;BMP280;57377;45.130;6.038;2023-01-06T04:27:28;93267.66;;;6.32
40968;BMP280;57377;45.130;6.038;2023-01-06T04:29:53;93267.41;;;6.12
40968;BMP280;57377;45.130;6.038;2023-01-06T04:32:19;93265.44;;;5.98
40968;BMP280;57377;45.130;6.038;2023-01-06T04:34:44;93262.47;;;6.32
40968;BMP280;57377;45.130;6.038;2023-01-06T04:37:10;93266.28;;;6.24
40968;BMP280;57377;45.130;6.038;2023-01-06T04:39:35;93263.59;;;6.19
40968;BMP280;57377;45.130;6.038;2023-01-06T04:42:01;93274.69;;;5.94
40968;BMP280;57377;45.130;6.038;2023-01-06T04:44:26;93267.44;;;5.91
40968;BMP280;57377;45.130;6.038;2023-01-06T04:46:52;93268.66;;;6.09
40968;BMP280;57377;45.130;6.038;2023-01-06T04:49:17;93261.00;;;5.93
40968;BMP280;57377;45.130;6.038;2023-01-06T04:51:43;93260.88;;;6.05
40968;BMP280;57377;45.130;6.038;2023-01-06T04:54:08;93266.69;;;5.95
40968;BMP280;57377;45.130;6.038;2023-01-06T04:56:34;93280.47;;;6.01
40968;BMP280;57377;45.130;6.038;2023-01-06T04:58:59;93272.06;;;5.89
40968;BMP280;57377;45.130;6.038;2023-01-06T05:01:25;93277.44;;;6.08
40968;BMP280;57377;45.130;6.038;2023-01-06T05:07:39;93273.13;;;5.93
40968;BMP280;57377;45.130;6.038;2023-01-06T05:10:07;93282.88;;;5.86
40968;BMP280;57377;45.130;6.038;2023-01-06T05:12:36;93278.59;;;5.96
40968;BMP280;57377;45.130;6.038;2023-01-06T05:18:57;93287.34;;;6.16
40968;BMP280;57377;45.130;6.038;2023-01-06T05:21:36;93282.78;;;6.02
40968;BMP280;57377;45.130;6.038;2023-01-06T05:24:12;93283.50;;;6.19
40968;BMP280;57377;45.130;6.038;2023-01-06T05:27:01;93279.31;;;6.34
40968;BMP280;57377;45.130;6.038;2023-01-06T05:29:29;93289.63;;;6.34
40968;BMP280;57377;45.130;6.038;2023-01-06T05:31:57;93283.94;;;6.32
40968;BMP280;57377;45.130;6.038;2023-01-06T05:41:00;93290.25;;;5.99
40968;BMP280;57377;45.130;6.038;2023-01-06T05:43:28;93292.03;;;5.77
40968;BMP280;57377;45.130;6.038;2023-01-06T05:45:56;93285.75;;;6.10
40968;BMP280;57377;45.130;6.038;2023-01-06T05:48:35;93287.78;;;6.08
40968;BMP280;57377;45.130;6.038;2023-01-06T05:51:17;93282.63;;;6.08
40968;BMP280;57377;45.130;6.038;2023-01-06T05:53:46;93293.59;;;6.20
40968;BMP280;57377;45.130;6.038;2023-01-06T05:56:21;93297.94;;;6.15
40968;BMP280;57377;45.130;6.038;2023-01-06T05:58:49;93296.97;;;6.21
40968;BMP280;57377;45.130;6.038;2023-01-06T06:01:23;93294.56;;;6.14
40968;BMP280;57377;45.130;6.038;2023-01-06T06:03:52;93293.44;;;6.06
40968;BMP280;57377;45.130;6.038;2023-01-06T06:06:20;93302.56;;;5.92
40968;BMP280;57377;45.130;6.038;2023-01-06T06:08:45;93297.38;;;6.34
40968;BMP280;57377;45.130;6.038;2023-01-06T06:11:16;93299.78;;;6.19
40968;BMP280;57377;45.130;6.038;2023-01-06T06:14:12;93298.41;;;6.12
40968;BMP280;57377;45.130;6.038;2023-01-06T06:16:41;93306.69;;;5.93
40968;BMP280;57377;45.130;6.038;2023-01-06T06:19:23;93307.19;;;5.74
40968;BMP280;57377;45.130;6.038;2023-01-06T06:21:54;93306.56;;;5.83
40968;BMP280;57377;45.130;6.038;2023-01-06T06:24:19;93310.78;;;5.89
40968;BMP280;57377;45.130;6.038;2023-01-06T06:26:45;93314.19;;;5.94
40968;BMP280;57377;45.130;6.038;2023-01-06T06:29:39;93309.53;;;5.91
40968;BMP280;57377;45.130;6.038;2023-01-06T06:32:50;93313.25;;;5.79
40968;BMP280;57377;45.130;6.038;2023-01-06T06:39:29;93320.50;;;5.82
40968;BMP280;57377;45.130;6.038;2023-01-06T06:42:44;93328.31;;;5.87
40968;BMP280;57377;45.130;6.038;2023-01-06T06:45:37;93321.31;;;6.04
40968;BMP280;57377;45.130;6.038;2023-01-06T06:48:06;93327.38;;;6.14
40968;BMP280;57377;45.130;6.038;2023-01-06T06:50:34;93317.09;;;6.19
40968;BMP280;57377;45.130;6.038;2023-01-06T06:52:59;93327.63;;;5.75
40968;BMP280;57377;45.130;6.038;2023-01-06T06:55:55;93325.72;;;5.87
40968;BMP280;57377;45.130;6.038;2023-01-06T07:02:41;93337.09;;;6.07
40968;BMP280;57377;45.130;6.038;2023-01-06T07:05:33;93330.53;;;6.00
40968;BMP280;57377;45.130;6.038;2023-01-06T07:11:54;93330.50;;;5.78
40968;BMP280;57377;45.130;6.038;2023-01-06T07:14:41;93331.69;;;5.71
40968;BMP280;57377;45.130;6.038;2023-01-06T07:17:43;93336.53;;;5.68
40968;BMP280;57377;45.130;6.038;2023-01-06T07:27:12;93327.28;;;5.88
40968;BMP280;57377;45.130;6.038;2023-01-06T07:29:37;93327.16;;;5.78
40968;BMP280;57377;45.130;6.038;2023-01-06T07:32:03;93327.84;;;5.90
40968;BMP280;57377;45.130;6.038;2023-01-06T07:34:32;93329.25;;;5.81
40968;BMP280;57377;45.130;6.038;2023-01-06T07:47:23;93348.97;;;5.71
40968;BMP280;57377;45.130;6.038;2023-01-06T07:49:49;93348.19;;;5.86
40968;BMP280;57377;45.130;6.038;2023-01-06T07:52:14;93353.22;;;5.98
40968;BMP280;57377;45.130;6.038;2023-01-06T07:54:42;93351.91;;;5.74
40968;BMP280;57377;45.130;6.038;2023-01-06T07:57:07;93359.78;;;5.84
40968;BMP280;57377;45.130;6.038;2023-01-06T07:59:36;93368.06;;;5.86
40968;BMP280;57377;45.130;6.038;2023-01-06T08:02:09;93373.38;;;5.96
40968;BMP280;57377;45.130;6.038;2023-01-06T08:04:35;93367.19;;;5.97
40968;BMP280;57377;45.130;6.038;2023-01-06T08:07:09;93371.59;;;6.17
40968;BMP280;57377;45.130;6.038;2023-01-06T08:09:35;93374.97;;;5.48
40968;BMP280;57377;45.130;6.038;2023-01-06T08:12:04;93384.69;;;4.97
40968;BMP280;57377;45.130;6.038;2023-01-06T08:14:32;93385.19;;;5.27
40968;BMP280;57377;45.130;6.038;2023-01-06T08:17:27;93370.47;;;5.11
40968;BMP280;57377;45.130;6.038;2023-01-06T08:23:36;93375.03;;;5.37
40968;BMP280;57377;45.130;6.038;2023-01-06T08:26:53;93371.97;;;5.40
40968;BMP280;57377;45.130;6.038;2023-01-06T08:35:31;93353.16;;;5.72
40968;BMP280;57377;45.130;6.038;2023-01-06T08:44:54;93359.78;;;5.84
40968;BMP280;57377;45.130;6.038;2023-01-06T08:47:40;93359.44;;;5.97
40968;BMP280;57377;45.130;6.038;2023-01-06T17:32:18;93191.34;;;8.58
40968;BMP280;57377;45.130;6.038;2023-01-06T17:34:57;93192.41;;;8.67
40968;BMP280;57377;45.130;6.038;2023-01-06T17:37:43;93189.00;;;8.66
40968;BMP280;57377;45.130;6.038;2023-01-06T17:54:39;93199.66;;;8.40
40968;BMP280;57377;45.130;6.038;2023-01-06T17:57:24;93212.97;;;8.03
40968;BMP280;57377;45.130;6.038;2023-01-06T18:06:43;93219.38;;;7.81
40968;BMP280;57377;45.130;6.038;2023-01-06T18:09:37;93213.91;;;7.82
40968;BMP280;57377;45.130;6.038;2023-01-06T18:22:56;93215.56;;;7.42
40968;BMP280;57377;45.130;6.038;2023-01-06T18:25:23;93225.00;;;7.68
40968;BMP280;57377;45.130;6.038;2023-01-06T18:28:00;93223.94;;;7.59
40968;BMP280;57377;45.130;6.038;2023-01-06T18:37:47;93221.72;;;7.36
40968;BMP280;57377;45.130;6.038;2023-01-06T18:40:22;93219.28;;;7.61
40968;BMP280;57377;45.130;6.038;2023-01-06T18:42:52;93217.72;;;7.60
40968;BMP280;57377;45.130;6.038;2023-01-06T18:45:30;93221.28;;;7.49
40968;BMP280;57377;45.130;6.038;2023-01-06T19:59:25;93195.88;;;7.46
40968;BMP280;57377;45.130;6.038;2023-01-06T20:13:28;93184.94;;;7.34
40968;BMP280;57377;45.130;6.038;2023-01-06T20:16:23;93189.13;;;7.40
40968;BMP280;57377;45.130;6.038;2023-01-06T20:26:03;93185.78;;;6.99
40968;BMP280;57377;45.130;6.038;2023-01-06T20:28:38;93182.78;;;7.17
40968;BMP280;57377;45.130;6.038;2023-01-06T21:34:40;93167.34;;;6.60
40968;BMP280;57377;45.130;6.038;2023-01-06T21:37:48;93167.16;;;7.02
40968;BMP280;57377;45.130;6.038;2023-01-06T21:40:45;93159.50;;;6.81
40968;BMP280;57377;45.130;6.038;2023-01-06T22:33:10;93145.66;;;6.97
40968;BMP280;57377;45.130;6.038;2023-01-06T22:35:56;93142.22;;;6.86
40968;BMP280;57377;45.130;6.038;2023-01-06T22:46:21;93140.16;;;6.88
40968;BMP280;57377;45.130;6.038;2023-01-06T22:52:41;93143.66;;;6.68
40968;BMP280;57377;45.130;6.038;2023-01-06T22:59:25;93140.59;;;6.39
40968;BMP280;57377;45.130;6.038;2023-01-06T23:19:53;93142.72;;;6.83
40968;BMP280;57377;45.130;6.038;2023-01-06T23:26:04;93132.75;;;6.61
40968;BMP280;57377;45.130;6.038;2023-01-06T23:28:43;93128.47;;;6.45
40968;BMP280;57377;45.130;6.038;2023-01-06T23:31:11;93132.94;;;6.54
40968;BMP280;57377;45.130;6.038;2023-01-06T23:33:38;93127.56;;;6.61
40968;BMP280;57377;45.130;6.038;2023-01-06T23:36:05;93125.75;;;6.61
40968;BMP280;57377;45.130;6.038;2023-01-06T23:38:31;93127.28;;;6.57
40968;BMP280;57377;45.130;6.038;2023-01-06T23:41:01;93124.91;;;6.51
40968;BMP280;57377;45.130;6.038;2023-01-06T23:43:29;93120.63;;;6.04
40968;BMP280;57377;45.130;6.038;2023-01-06T23:46:04;93119.84;;;6.04
40968;BMP280;57377;45.130;6.038;2023-01-06T23:48:31;93110.25;;;6.30
40968;BMP280;57377;45.130;6.038;2023-01-06T23:50:57;93111.72;;;6.21
40968;BMP280;57377;45.130;6.038;2023-01-06T23:53:24;93119.50;;;5.27
40968;BMP280;57377;45.130;6.038;2023-01-06T23:56:04;93103.81;;;5.75
40968;BMP280;57377;45.130;6.038;2023-01-06T23:58:58;93104.75;;;5.91
